Time;durP1;ratioP1;P1;durP2;ratioP2;P2;SDS_P1;SDS_P2;PMS_P1;PMS_P2;Temp;Humidity;BMP_temperature;BMP_pressure;BME280_temperature;BME280_humidity;BME280_pressure;Samples;Min_cycle;Max_cycle;Signal;HPM_P1;HPM_P2
2021/10/17 00:01:24;;;;;;;76.63;39.10;;;5.20;99.90;;;;;;5082214;28;20150;-77
2021/10/17 00:03:50;;;;;;;89.55;46.92;;;5.20;99.90;;;;;;5081585;28;20031;-77
2021/10/17 00:06:18;;;;;;;89.75;46.47;;;5.20;99.90;;;;;;5080898;28;20021;-78
2021/10/17 00:08:44;;;;;;;81.10;43.70;;;5.20;99.90;;;;;;5080549;28;20020;-76
2021/10/17 00:11:10;;;;;;;78.45;43.63;;;5.20;99.90;;;;;;5079512;28;20026;-76
2021/10/17 00:13:36;;;;;;;67.03;41.13;;;5.20;99.90;;;;;;5079279;28;20020;-76
2021/10/17 00:16:02;;;;;;;74.88;41.45;;;5.20;99.90;;;;;;5072879;28;20027;-76
2021/10/17 00:18:28;;;;;;;72.25;40.30;;;5.20;99.90;;;;;;5080701;28;20036;-76
2021/10/17 00:20:54;;;;;;;72.25;39.78;;;5.20;99.90;;;;;;5079469;28;20028;-77
2021/10/17 00:23:19;;;;;;;62.33;35.38;;;5.20;99.90;;;;;;5081726;28;20452;-76
2021/10/17 00:25:45;;;;;;;78.00;39.38;;;5.20;99.90;;;;;;5082461;28;20066;-78
2021/10/17 00:28:11;;;;;;;71.18;39.72;;;5.20;99.90;;;;;;5079555;28;20474;-78
2021/10/17 00:30:36;;;;;;;80.10;40.33;;;5.20;99.90;;;;;;5082705;28;20381;-77
2021/10/17 00:33:03;;;;;;;75.20;39.22;;;5.20;99.90;;;;;;5085900;28;20013;-77
2021/10/17 00:35:28;;;;;;;79.10;42.28;;;5.20;99.90;;;;;;5082931;28;20059;-76
2021/10/17 00:37:54;;;;;;;76.90;39.15;;;5.20;99.90;;;;;;5076222;28;20048;-76
2021/10/17 00:40:22;;;;;;;76.68;41.17;;;5.20;99.90;;;;;;5074322;28;20424;-76
2021/10/17 00:42:48;;;;;;;73.28;39.38;;;5.20;99.90;;;;;;5076116;28;20066;-77
2021/10/17 00:45:20;;;;;;;66.90;36.60;;;5.20;99.90;;;;;;5075257;28;20025;-76
2021/10/17 00:47:45;;;;;;;73.43;40.25;;;5.20;99.90;;;;;;5076750;28;20044;-76
2021/10/17 00:50:12;;;;;;;74.72;39.40;;;5.20;99.90;;;;;;5075179;28;20025;-76
2021/10/17 00:52:40;;;;;;;73.78;39.90;;;5.20;99.90;;;;;;5076485;28;20016;-78
2021/10/17 00:55:07;;;;;;;68.15;38.58;;;5.10;99.90;;;;;;5076347;28;20031;-77
2021/10/17 00:57:34;;;;;;;65.15;36.00;;;5.10;99.90;;;;;;5076178;28;20028;-77
2021/10/17 01:00:00;;;;;;;70.78;37.60;;;5.10;99.90;;;;;;5076590;28;20045;-76
2021/10/17 01:02:26;;;;;;;67.22;35.70;;;5.10;99.90;;;;;;5076282;28;20075;-77
2021/10/17 01:04:51;;;;;;;75.15;39.20;;;5.10;99.90;;;;;;5074845;28;20028;-77
2021/10/17 01:07:17;;;;;;;67.80;38.35;;;5.10;99.90;;;;;;5076165;28;20143;-78
2021/10/17 01:09:43;;;;;;;74.28;37.20;;;5.10;99.90;;;;;;5074730;28;20028;-76
2021/10/17 01:12:09;;;;;;;74.10;38.20;;;5.10;99.90;;;;;;5074798;28;20406;-77
2021/10/17 01:14:35;;;;;;;70.45;38.08;;;5.10;99.90;;;;;;5075743;28;20095;-76
2021/10/17 01:17:01;;;;;;;97.43;50.08;;;5.10;99.90;;;;;;5076998;28;20393;-76
2021/10/17 01:19:27;;;;;;;50.58;29.08;;;5.20;99.90;;;;;;5075875;28;20099;-76
2021/10/17 01:21:53;;;;;;;56.50;28.05;;;5.10;99.90;;;;;;5074249;28;20482;-78
2021/10/17 01:24:19;;;;;;;67.78;36.88;;;5.10;99.90;;;;;;5074366;28;20111;-77
2021/10/17 01:26:46;;;;;;;64.30;33.42;;;5.20;99.90;;;;;;5075668;28;20031;-77
2021/10/17 01:29:12;;;;;;;58.53;31.67;;;5.20;99.90;;;;;;5075638;28;20067;-76
2021/10/17 01:31:50;;;;;;;57.97;31.52;;;5.20;99.90;;;;;;5075685;28;20052;-77
2021/10/17 01:34:16;;;;;;;59.00;30.00;;;5.10;99.90;;;;;;5074360;28;20043;-77
2021/10/17 01:36:42;;;;;;;49.33;27.05;;;5.20;99.90;;;;;;5074300;28;20527;-77
2021/10/17 01:39:10;;;;;;;58.38;31.85;;;5.20;99.90;;;;;;5091153;28;20028;-76
2021/10/17 01:41:36;;;;;;;60.38;33.13;;;5.20;99.90;;;;;;5093904;28;20035;-76
2021/10/17 01:44:08;;;;;;;58.65;30.95;;;5.20;99.90;;;;;;5093715;28;20023;-76
2021/10/17 01:46:35;;;;;;;55.20;29.70;;;5.20;99.90;;;;;;5095639;28;20028;-76
2021/10/17 01:49:02;;;;;;;66.03;32.88;;;5.20;99.90;;;;;;5094332;28;20028;-77
2021/10/17 01:51:28;;;;;;;58.55;32.60;;;5.20;99.90;;;;;;5095680;28;20481;-77
2021/10/17 01:53:53;;;;;;;62.88;30.23;;;5.20;99.90;;;;;;5094132;28;20027;-77
2021/10/17 01:56:19;;;;;;;48.83;27.95;;;5.10;99.90;;;;;;5095530;28;20069;-77
2021/10/17 01:58:45;;;;;;;46.63;25.88;;;5.10;99.90;;;;;;5094163;28;20039;-76
2021/10/17 02:01:10;;;;;;;52.83;27.65;;;5.10;99.90;;;;;;5094100;28;20032;-77
2021/10/17 02:03:36;;;;;;;50.08;25.80;;;5.10;99.90;;;;;;5094024;28;20020;-77
2021/10/17 02:06:02;;;;;;;50.25;26.27;;;5.10;99.90;;;;;;5095312;28;20024;-77
2021/10/17 02:08:29;;;;;;;59.15;29.20;;;5.20;99.90;;;;;;5087415;28;20054;-76
2021/10/17 02:10:55;;;;;;;58.40;29.95;;;5.20;99.90;;;;;;5074926;28;20063;-77
2021/10/17 02:13:21;;;;;;;64.18;32.40;;;5.10;99.90;;;;;;5084801;28;20020;-77
2021/10/17 02:15:46;;;;;;;66.25;32.40;;;5.10;99.90;;;;;;5095042;28;20461;-77
2021/10/17 02:18:12;;;;;;;75.78;39.50;;;5.10;99.90;;;;;;5084631;28;20478;-76
2021/10/17 02:20:37;;;;;;;67.38;37.03;;;5.20;99.90;;;;;;5081146;28;20062;-77
2021/10/17 02:23:04;;;;;;;60.88;31.23;;;5.20;99.90;;;;;;5082338;28;20020;-77
2021/10/17 02:25:30;;;;;;;81.22;42.03;;;5.20;99.90;;;;;;5080028;28;20024;-76
2021/10/17 02:27:57;;;;;;;71.68;38.20;;;5.20;99.90;;;;;;5079421;28;20485;-77
2021/10/17 02:30:22;;;;;;;67.00;32.22;;;5.20;99.90;;;;;;5081250;28;20359;-76
2021/10/17 02:32:48;;;;;;;59.10;30.80;;;5.20;99.90;;;;;;5080238;28;20023;-76
2021/10/17 02:35:14;;;;;;;64.88;32.80;;;5.20;99.90;;;;;;5079414;28;20016;-76
2021/10/17 02:37:39;;;;;;;60.17;30.95;;;5.20;99.90;;;;;;5081234;28;20030;-77
2021/10/17 02:40:06;;;;;;;58.58;30.80;;;5.20;99.90;;;;;;5081755;28;20035;-76
2021/10/17 02:42:31;;;;;;;55.70;29.80;;;5.20;99.90;;;;;;5081525;28;20012;-76
2021/10/17 02:44:57;;;;;;;61.45;30.45;;;5.20;99.90;;;;;;5079670;28;20027;-77
2021/10/17 02:47:22;;;;;;;64.65;31.42;;;5.30;99.90;;;;;;5077717;28;20112;-78
2021/10/17 02:49:48;;;;;;;66.75;32.70;;;5.30;99.90;;;;;;5081332;28;20489;-76
2021/10/17 02:52:14;;;;;;;59.55;30.33;;;5.30;99.90;;;;;;5078141;28;20055;-78
2021/10/17 02:54:39;;;;;;;67.15;34.35;;;5.30;99.90;;;;;;5077562;28;20058;-76
2021/10/17 02:57:05;;;;;;;63.80;32.40;;;5.30;99.90;;;;;;5080289;28;20064;-77
2021/10/17 02:59:31;;;;;;;70.95;38.17;;;5.30;99.90;;;;;;5086092;28;20450;-76
2021/10/17 03:01:57;;;;;;;73.13;38.95;;;5.30;99.90;;;;;;5085751;28;20111;-77
2021/10/17 03:04:22;;;;;;;74.28;38.80;;;5.30;99.90;;;;;;5078084;28;20074;-76
2021/10/17 03:06:48;;;;;;;79.43;42.15;;;5.30;99.90;;;;;;5088314;28;20051;-77
2021/10/17 03:09:14;;;;;;;70.60;39.83;;;5.30;99.90;;;;;;5090627;28;20061;-76
2021/10/17 03:11:39;;;;;;;72.25;39.75;;;5.30;99.90;;;;;;5086368;28;20032;-78
2021/10/17 03:14:05;;;;;;;69.00;37.47;;;5.30;99.90;;;;;;5080668;28;20028;-76
2021/10/17 03:16:31;;;;;;;69.85;36.13;;;5.30;99.90;;;;;;5078922;28;20017;-77
2021/10/17 03:18:57;;;;;;;63.65;35.40;;;5.30;99.90;;;;;;5088862;28;20023;-77
2021/10/17 03:21:23;;;;;;;68.80;34.15;;;5.30;99.90;;;;;;5080563;28;20493;-76
2021/10/17 03:23:49;;;;;;;60.35;35.08;;;5.20;99.90;;;;;;5084015;28;20049;-76
2021/10/17 03:26:14;;;;;;;67.38;35.55;;;5.20;99.90;;;;;;5081056;28;20028;-77
2021/10/17 03:28:40;;;;;;;60.22;34.15;;;5.20;99.90;;;;;;5082338;28;20012;-76
2021/10/17 03:31:07;;;;;;;66.60;35.58;;;5.20;99.90;;;;;;5089793;28;20028;-76
2021/10/17 03:33:34;;;;;;;70.55;38.78;;;5.30;99.90;;;;;;5083126;28;20023;-77
2021/10/17 03:35:59;;;;;;;72.45;39.38;;;5.30;99.90;;;;;;5081997;28;20066;-77
2021/10/17 03:38:25;;;;;;;75.65;40.90;;;5.30;99.90;;;;;;5075962;28;20032;-76
2021/10/17 03:40:51;;;;;;;72.70;37.55;;;5.30;99.90;;;;;;5085447;28;20065;-76
2021/10/17 03:43:17;;;;;;;78.68;41.40;;;5.30;99.90;;;;;;5087227;28;20020;-76
2021/10/17 03:45:42;;;;;;;81.43;43.17;;;5.30;99.90;;;;;;5084042;28;20035;-77
2021/10/17 03:48:08;;;;;;;77.32;39.63;;;5.30;99.90;;;;;;5084564;28;20020;-77
2021/10/17 03:50:35;;;;;;;82.28;43.60;;;5.30;99.90;;;;;;5078537;28;20024;-77
2021/10/17 03:53:01;;;;;;;83.80;43.30;;;5.40;99.90;;;;;;5085032;28;20024;-76
2021/10/17 03:55:27;;;;;;;73.97;39.22;;;5.30;99.90;;;;;;5078740;28;20492;-76
2021/10/17 03:57:53;;;;;;;78.15;41.10;;;5.30;99.90;;;;;;5073588;28;20025;-76
2021/10/17 04:00:18;;;;;;;75.47;41.10;;;5.30;99.90;;;;;;5092436;28;20501;-76
2021/10/17 04:02:44;;;;;;;76.60;42.40;;;5.30;99.90;;;;;;5091867;28;20060;-76
2021/10/17 04:05:10;;;;;;;79.53;43.65;;;5.30;99.90;;;;;;5091542;28;20016;-77
2021/10/17 04:07:37;;;;;;;78.30;43.85;;;5.20;99.90;;;;;;5071593;28;20497;-77
2021/10/17 04:10:04;;;;;;;83.60;43.83;;;5.20;99.90;;;;;;5072869;28;20056;-77
2021/10/17 04:12:30;;;;;;;81.18;45.15;;;5.30;99.90;;;;;;5071668;28;20363;-77
2021/10/17 04:14:56;;;;;;;85.35;45.20;;;5.30;99.90;;;;;;5072757;28;20073;-76
2021/10/17 04:17:21;;;;;;;87.28;45.30;;;5.30;99.90;;;;;;5071634;28;20024;-77
2021/10/17 04:19:47;;;;;;;81.57;41.33;;;5.20;99.90;;;;;;5082995;28;20093;-77
2021/10/17 04:22:13;;;;;;;71.75;43.00;;;5.30;99.90;;;;;;5085695;28;20059;-77
2021/10/17 04:24:38;;;;;;;75.28;42.30;;;5.30;99.90;;;;;;5072664;28;20020;-76
2021/10/17 04:27:08;;;;;;;79.13;42.20;;;5.30;99.90;;;;;;5072762;28;20395;-78
2021/10/17 04:29:35;;;;;;;80.18;43.38;;;5.20;99.90;;;;;;5072665;28;20103;-77
2021/10/17 04:32:02;;;;;;;80.13;44.88;;;5.30;99.90;;;;;;5072660;28;20020;-76
2021/10/17 04:34:27;;;;;;;85.25;45.70;;;5.20;99.90;;;;;;5071320;28;20024;-77
2021/10/17 04:36:53;;;;;;;82.07;44.83;;;5.20;99.90;;;;;;5076166;28;20024;-78
2021/10/17 04:39:19;;;;;;;79.82;42.85;;;5.20;99.90;;;;;;5088040;28;20016;-77
2021/10/17 04:41:45;;;;;;;84.93;45.03;;;5.20;99.90;;;;;;5082375;28;20409;-77
2021/10/17 04:44:11;;;;;;;78.82;44.00;;;5.20;99.90;;;;;;5080093;28;20070;-76
2021/10/17 04:46:36;;;;;;;86.05;46.70;;;5.20;99.90;;;;;;5091506;28;20024;-77
2021/10/17 04:49:02;;;;;;;84.10;45.55;;;5.20;99.90;;;;;;5086683;28;20343;-76
2021/10/17 04:51:28;;;;;;;89.18;45.97;;;5.20;99.90;;;;;;5072519;28;20497;-77
2021/10/17 04:53:53;;;;;;;80.30;46.95;;;5.20;99.90;;;;;;5072341;28;20482;-77
2021/10/17 04:56:19;;;;;;;83.43;44.30;;;5.20;99.90;;;;;;5071656;28;20027;-77
2021/10/17 04:58:45;;;;;;;78.97;42.05;;;5.30;99.90;;;;;;5081299;28;20384;-76
2021/10/17 05:01:11;;;;;;;74.63;40.72;;;5.30;99.90;;;;;;5083403;28;20055;-77
2021/10/17 05:03:37;;;;;;;81.25;42.95;;;5.20;99.90;;;;;;5070823;28;20473;-77
2021/10/17 05:06:04;;;;;;;78.72;42.15;;;5.20;99.90;;;;;;5070934;28;20573;-77
2021/10/17 05:08:29;;;;;;;76.40;42.00;;;5.20;99.90;;;;;;5070889;28;20024;-76
2021/10/17 05:10:55;;;;;;;81.85;43.17;;;5.20;99.90;;;;;;5072045;28;20539;-78
2021/10/17 05:13:21;;;;;;;84.72;46.03;;;5.20;99.90;;;;;;5070425;28;20020;-76
2021/10/17 05:15:46;;;;;;;82.05;46.20;;;5.20;99.90;;;;;;5072175;28;20025;-77
2021/10/17 05:18:12;;;;;;;89.82;47.67;;;5.20;99.90;;;;;;5094255;28;20115;-77
2021/10/17 05:20:38;;;;;;;82.85;44.78;;;5.20;99.90;;;;;;5093774;28;20063;-77
2021/10/17 05:23:08;;;;;;;83.85;45.33;;;5.20;99.90;;;;;;5094695;28;20032;-77
2021/10/17 05:25:35;;;;;;;86.15;46.33;;;5.20;99.90;;;;;;5095906;28;20573;-77
2021/10/17 05:28:02;;;;;;;94.95;48.30;;;5.20;99.90;;;;;;5092881;28;20024;-76
2021/10/17 05:30:27;;;;;;;90.57;48.55;;;5.20;99.90;;;;;;5092859;28;20020;-76
2021/10/17 05:32:53;;;;;;;82.43;44.60;;;5.20;99.90;;;;;;5093883;28;20012;-77
2021/10/17 05:35:19;;;;;;;89.68;46.28;;;5.20;99.90;;;;;;5094180;28;20115;-76
2021/10/17 05:37:44;;;;;;;84.13;46.17;;;5.30;99.90;;;;;;5094028;28;20294;-78
2021/10/17 05:40:10;;;;;;;88.50;46.53;;;5.30;99.90;;;;;;5093890;28;20025;-77
2021/10/17 05:42:36;;;;;;;83.97;47.70;;;5.30;99.90;;;;;;5095289;28;20446;-77
2021/10/17 05:45:03;;;;;;;86.75;47.60;;;5.30;99.90;;;;;;5090445;28;20027;-76
2021/10/17 05:47:29;;;;;;;89.07;49.10;;;5.40;99.90;;;;;;5085119;28;20069;-77
2021/10/17 05:49:55;;;;;;;90.93;50.05;;;5.30;99.90;;;;;;5084825;28;20029;-77
2021/10/17 05:52:20;;;;;;;91.28;50.03;;;5.30;99.90;;;;;;5093373;28;20435;-76
2021/10/17 05:54:46;;;;;;;98.05;53.50;;;5.30;99.90;;;;;;5110942;28;20013;-76
2021/10/17 05:57:11;;;;;;;87.53;48.78;;;5.30;99.90;;;;;;5110745;28;20023;-76
2021/10/17 05:59:37;;;;;;;92.20;49.42;;;5.40;99.90;;;;;;5095295;28;20032;-77
2021/10/17 06:02:03;;;;;;;98.95;50.58;;;5.40;99.90;;;;;;5095059;28;20032;-77
2021/10/17 06:04:28;;;;;;;94.07;49.83;;;5.40;99.90;;;;;;5095146;28;20028;-76
2021/10/17 06:06:54;;;;;;;95.50;50.28;;;5.40;99.90;;;;;;5094740;28;20031;-77
2021/10/17 06:09:20;;;;;;;111.53;62.55;;;5.50;99.90;;;;;;5094831;28;20053;-76
2021/10/17 06:11:45;;;;;;;95.80;53.30;;;5.40;99.90;;;;;;5107783;28;20043;-76
2021/10/17 06:14:11;;;;;;;109.05;55.25;;;5.40;99.90;;;;;;5085494;28;20493;-76
2021/10/17 06:16:37;;;;;;;101.65;55.10;;;5.40;99.90;;;;;;5083569;28;20095;-76
2021/10/17 06:19:03;;;;;;;111.15;56.88;;;5.40;99.90;;;;;;5083901;28;20020;-77
2021/10/17 06:21:28;;;;;;;95.50;52.58;;;5.40;99.90;;;;;;5081784;28;20028;-77
2021/10/17 06:23:54;;;;;;;164.75;85.28;;;5.40;99.90;;;;;;5084648;28;20420;-76
2021/10/17 06:26:19;;;;;;;175.40;94.13;;;5.50;99.90;;;;;;5083955;28;20374;-77
2021/10/17 06:28:45;;;;;;;122.75;69.05;;;5.50;99.90;;;;;;5086272;28;20539;-76
2021/10/17 06:31:11;;;;;;;141.35;72.90;;;5.50;99.90;;;;;;5076704;28;20490;-77
2021/10/17 06:33:36;;;;;;;107.00;57.83;;;5.60;99.90;;;;;;5084732;28;20499;-77
2021/10/17 06:36:02;;;;;;;91.15;53.50;;;5.60;99.90;;;;;;5073166;28;20508;-78
2021/10/17 06:38:28;;;;;;;105.18;58.83;;;5.70;99.90;;;;;;5072998;28;20111;-77
2021/10/17 06:40:53;;;;;;;102.70;53.78;;;5.60;99.90;;;;;;5072879;28;20517;-77
2021/10/17 06:43:19;;;;;;;97.15;51.60;;;5.60;99.90;;;;;;5074185;28;20078;-77
2021/10/17 06:45:45;;;;;;;102.53;56.75;;;5.60;99.90;;;;;;5082700;28;20027;-78
2021/10/17 06:48:10;;;;;;;103.85;57.90;;;5.70;99.90;;;;;;5090151;28;20020;-78
2021/10/17 06:50:36;;;;;;;95.93;53.20;;;5.70;99.90;;;;;;5074942;28;20016;-78
2021/10/17 06:53:02;;;;;;;94.90;50.47;;;5.70;99.90;;;;;;5072723;28;20027;-77
2021/10/17 06:55:28;;;;;;;91.95;50.83;;;5.70;99.90;;;;;;5072556;28;20028;-77
2021/10/17 06:57:53;;;;;;;92.22;51.70;;;5.80;99.90;;;;;;5072193;28;20037;-77
2021/10/17 07:00:19;;;;;;;86.32;45.25;;;5.80;99.90;;;;;;5072546;28;20020;-77
2021/10/17 07:02:44;;;;;;;86.63;48.15;;;5.90;99.90;;;;;;5072499;28;20382;-77
2021/10/17 07:05:10;;;;;;;89.53;48.03;;;5.90;99.90;;;;;;5072482;28;20017;-75
2021/10/17 07:07:36;;;;;;;84.35;48.42;;;6.00;99.90;;;;;;5073634;28;20024;-75
2021/10/17 07:10:02;;;;;;;83.63;48.67;;;6.00;99.90;;;;;;5072292;28;20021;-76
2021/10/17 07:12:27;;;;;;;84.80;47.75;;;6.10;99.90;;;;;;5077307;28;20035;-76
2021/10/17 07:14:53;;;;;;;76.25;43.30;;;6.10;99.90;;;;;;5079818;28;20024;-76
2021/10/17 07:17:20;;;;;;;73.15;40.83;;;6.20;99.90;;;;;;5072221;28;20377;-76
2021/10/17 07:19:45;;;;;;;73.65;41.58;;;6.20;99.90;;;;;;5078571;28;20051;-76
2021/10/17 07:22:11;;;;;;;72.35;41.60;;;6.30;99.90;;;;;;5083674;28;20063;-76
2021/10/17 07:24:37;;;;;;;68.05;38.13;;;6.30;99.90;;;;;;5080487;28;20482;-76
2021/10/17 07:27:03;;;;;;;67.22;36.67;;;6.40;99.90;;;;;;5083040;28;20474;-77
2021/10/17 07:29:28;;;;;;;74.93;38.40;;;6.40;99.90;;;;;;5073951;28;20024;-76
2021/10/17 07:31:54;;;;;;;66.43;36.08;;;6.50;99.90;;;;;;5072681;28;20386;-77
2021/10/17 07:34:20;;;;;;;64.15;36.50;;;6.50;99.90;;;;;;5076923;28;20092;-76
2021/10/17 07:36:46;;;;;;;71.00;36.25;;;6.50;99.90;;;;;;5090604;28;20034;-77
2021/10/17 07:39:12;;;;;;;62.67;34.53;;;6.50;99.90;;;;;;5079570;28;20021;-77
2021/10/17 07:41:41;;;;;;;65.85;37.65;;;6.60;99.90;;;;;;5076936;28;21023;-76
2021/10/17 07:44:07;;;;;;;63.80;33.40;;;6.60;99.90;;;;;;5082531;28;20025;-76
2021/10/17 07:46:33;;;;;;;58.38;31.10;;;6.70;99.90;;;;;;5075784;28;20389;-76
2021/10/17 07:48:59;;;;;;;50.80;28.25;;;6.70;99.90;;;;;;5073540;28;20016;-76
2021/10/17 07:51:26;;;;;;;48.35;28.98;;;6.70;99.90;;;;;;5079223;28;20038;-77
2021/10/17 07:53:52;;;;;;;52.80;26.77;;;6.80;99.90;;;;;;5079570;28;20013;-77
2021/10/17 07:56:18;;;;;;;55.10;28.27;;;6.80;99.90;;;;;;5078041;28;21086;-76
2021/10/17 07:58:44;;;;;;;54.40;31.15;;;6.90;99.90;;;;;;5085446;28;20498;-76
2021/10/17 08:01:10;;;;;;;52.17;29.17;;;6.90;99.90;;;;;;5074557;28;20028;-76
2021/10/17 08:03:36;;;;;;;50.30;29.48;;;6.90;99.90;;;;;;5076405;28;20081;-77
2021/10/17 08:06:02;;;;;;;50.90;27.73;;;6.90;99.90;;;;;;5078996;28;20351;-76
2021/10/17 08:08:27;;;;;;;53.20;28.42;;;7.00;99.90;;;;;;5077602;28;20026;-76
2021/10/17 08:10:53;;;;;;;49.03;26.90;;;7.10;99.90;;;;;;5077574;28;20036;-77
2021/10/17 08:13:19;;;;;;;47.35;28.52;;;7.10;99.90;;;;;;5080723;28;20024;-76
2021/10/17 08:15:45;;;;;;;47.22;25.23;;;7.20;99.90;;;;;;5092679;28;20401;-77
2021/10/17 08:18:11;;;;;;;47.47;24.73;;;7.20;99.90;;;;;;5087700;28;20020;-76
2021/10/17 08:20:36;;;;;;;45.58;25.95;;;7.20;99.90;;;;;;5092507;28;20032;-76
2021/10/17 08:23:02;;;;;;;46.17;27.27;;;7.30;99.90;;;;;;5085736;28;20103;-78
2021/10/17 08:25:30;;;;;;;50.85;29.30;;;7.30;99.90;;;;;;5070539;28;20028;-76
2021/10/17 08:27:55;;;;;;;43.92;24.33;;;7.40;99.90;;;;;;5074049;28;20029;-76
2021/10/17 08:30:21;;;;;;;41.95;24.88;;;7.40;99.90;;;;;;5087913;28;20023;-77
2021/10/17 08:32:47;;;;;;;49.60;27.42;;;7.50;99.90;;;;;;5086837;28;20054;-80
2021/10/17 08:35:13;;;;;;;49.40;27.00;;;7.50;99.90;;;;;;5080690;28;20023;-77
2021/10/17 08:37:38;;;;;;;44.53;23.08;;;7.60;99.90;;;;;;5077107;28;20545;-77
2021/10/17 08:40:05;;;;;;;38.45;22.45;;;7.60;99.90;;;;;;5074257;28;20493;-77
2021/10/17 08:42:31;;;;;;;48.00;28.45;;;7.70;99.90;;;;;;5068521;28;20193;-77
2021/10/17 08:44:57;;;;;;;39.38;21.60;;;7.70;99.90;;;;;;5069713;28;20476;-77
2021/10/17 08:47:26;;;;;;;35.15;21.83;;;7.70;99.90;;;;;;5073754;28;20024;-78
2021/10/17 08:49:53;;;;;;;33.88;19.38;;;7.70;99.90;;;;;;5068925;28;20567;-77
2021/10/17 08:52:19;;;;;;;43.00;21.65;;;7.80;99.90;;;;;;5076795;28;20063;-77
2021/10/17 08:54:45;;;;;;;31.55;20.38;;;7.90;99.90;;;;;;5093398;28;20510;-76
2021/10/17 08:57:10;;;;;;;49.70;32.70;;;7.90;99.90;;;;;;5093565;28;20034;-77
2021/10/17 08:59:36;;;;;;;42.08;27.45;;;8.00;99.90;;;;;;5078148;28;20032;-77
2021/10/17 09:02:16;;;;;;;36.22;19.98;;;8.10;99.90;;;;;;5084567;28;20114;-77
2021/10/17 09:04:42;;;;;;;32.30;18.52;;;8.20;99.90;;;;;;5078897;28;20031;-77
2021/10/17 09:07:19;;;;;;;34.25;18.48;;;8.20;99.90;;;;;;5076135;28;20385;-77
2021/10/17 09:10:05;;;;;;;32.58;18.73;;;8.20;99.90;;;;;;5085163;28;20016;-77
2021/10/17 09:12:31;;;;;;;30.85;18.77;;;8.20;99.90;;;;;;5086675;28;20059;-77
2021/10/17 09:15:31;;;;;;;31.58;19.08;;;8.30;99.90;;;;;;5084385;28;20437;-77
2021/10/17 09:18:22;;;;;;;29.33;17.23;;;8.40;99.90;;;;;;5071015;28;20058;-77
2021/10/17 09:20:48;;;;;;;32.42;16.52;;;8.40;99.90;;;;;;5075387;28;20370;-77
2021/10/17 09:23:17;;;;;;;28.85;15.60;;;8.50;99.90;;;;;;5080298;28;20028;-77
2021/10/17 09:25:43;;;;;;;29.05;16.50;;;8.50;99.20;;;;;;5091986;28;20028;-78
2021/10/17 09:28:27;;;;;;;29.88;17.33;;;8.60;99.00;;;;;;5092639;28;20027;-76
2021/10/17 09:31:02;;;;;;;28.67;15.93;;;8.70;99.90;;;;;;5095106;28;20023;-77
2021/10/17 09:33:28;;;;;;;20.80;13.88;;;8.70;97.80;;;;;;5092548;28;20029;-78
2021/10/17 09:35:54;;;;;;;24.23;13.77;;;8.70;95.80;;;;;;5077636;28;20021;-77
2021/10/17 09:38:33;;;;;;;29.13;15.55;;;8.70;95.80;;;;;;5075906;28;20486;-77
2021/10/17 09:41:18;;;;;;;23.88;14.93;;;8.80;96.50;;;;;;5075122;28;20062;-78
2021/10/17 09:43:54;;;;;;;28.73;14.98;;;8.90;96.60;;;;;;5074023;28;20027;-78
2021/10/17 09:46:20;;;;;;;25.75;15.02;;;9.00;96.30;;;;;;5071316;28;20028;-77
2021/10/17 09:48:46;;;;;;;24.75;14.75;;;9.10;95.40;;;;;;5074147;28;20036;-77
2021/10/17 09:51:17;;;;;;;23.50;13.13;;;9.10;94.30;;;;;;5074153;28;20021;-78
2021/10/17 09:53:51;;;;;;;25.50;14.00;;;9.10;93.40;;;;;;5072583;28;20040;-77
2021/10/17 09:56:36;;;;;;;25.90;13.88;;;9.10;89.50;;;;;;5079629;28;20021;-77
2021/10/17 09:59:07;;;;;;;24.92;14.07;;;9.10;91.90;;;;;;5072818;28;20028;-78
2021/10/17 10:01:35;;;;;;;19.45;12.93;;;9.20;93.20;;;;;;5073761;28;20052;-77
2021/10/17 10:04:03;;;;;;;23.92;13.20;;;9.20;91.20;;;;;;5091997;28;20488;-77
2021/10/17 10:06:30;;;;;;;25.77;13.57;;;9.20;90.00;;;;;;5078391;28;20023;-78
2021/10/17 10:09:04;;;;;;;23.00;13.00;;;9.30;91.70;;;;;;5073100;28;20032;-77
2021/10/17 10:11:31;;;;;;;23.40;12.35;;;9.30;91.20;;;;;;5074391;28;20016;-77
2021/10/17 10:14:00;;;;;;;19.00;12.77;;;9.40;88.10;;;;;;5092914;28;20028;-77
2021/10/17 10:16:27;;;;;;;23.85;12.60;;;9.40;87.20;;;;;;5089515;28;20052;-78
2021/10/17 10:19:01;;;;;;;27.55;13.45;;;9.40;86.70;;;;;;5080934;28;20094;-78
2021/10/17 10:21:28;;;;;;;24.08;14.52;;;9.40;88.50;;;;;;5073213;28;20032;-77
2021/10/17 10:24:00;;;;;;;21.17;12.77;;;9.40;88.90;;;;;;5074608;28;20031;-77
2021/10/17 10:26:27;;;;;;;22.73;12.80;;;9.40;84.50;;;;;;5072562;28;20021;-77
2021/10/17 10:28:54;;;;;;;18.67;12.23;;;9.50;85.20;;;;;;5072034;28;20390;-78
2021/10/17 10:31:52;;;;;;;20.48;11.88;;;9.50;83.10;;;;;;5074315;28;20024;-77
2021/10/17 10:34:20;;;;;;;18.73;11.65;;;9.50;83.80;;;;;;5080068;28;20020;-77
2021/10/17 10:36:47;;;;;;;24.38;11.63;;;9.60;83.40;;;;;;5075080;28;20490;-77
2021/10/17 10:39:21;;;;;;;20.27;12.32;;;9.60;81.30;;;;;;5081402;28;20390;-78
2021/10/17 10:42:01;;;;;;;20.42;12.30;;;9.60;81.20;;;;;;5080310;28;20056;-77
2021/10/17 10:44:42;;;;;;;20.33;12.85;;;9.60;78.60;;;;;;5082876;28;20024;-77
2021/10/17 10:47:26;;;;;;;20.45;12.77;;;9.60;78.90;;;;;;5080007;28;20025;-78
2021/10/17 10:49:57;;;;;;;18.02;11.10;;;9.70;80.90;;;;;;5072981;28;20020;-77
2021/10/17 10:52:28;;;;;;;21.75;11.77;;;9.80;80.10;;;;;;5073415;28;20043;-78
2021/10/17 10:54:58;;;;;;;20.42;11.05;;;9.90;80.30;;;;;;5076127;28;20027;-77
2021/10/17 10:57:29;;;;;;;17.98;12.05;;;9.90;78.40;;;;;;5072958;28;20020;-77
2021/10/17 11:00:05;;;;;;;19.38;10.57;;;9.80;77.00;;;;;;5074300;28;20124;-77
2021/10/17 11:02:31;;;;;;;20.58;10.90;;;9.80;73.60;;;;;;5071938;28;20048;-77
2021/10/17 11:05:16;;;;;;;17.10;11.18;;;9.90;77.40;;;;;;5071351;28;20126;-77
2021/10/17 11:07:43;;;;;;;17.35;10.07;;;10.00;76.50;;;;;;5072022;28;20020;-77
2021/10/17 11:10:26;;;;;;;19.17;9.13;;;10.10;74.60;;;;;;5079993;28;20074;-77
2021/10/17 11:12:57;;;;;;;16.50;8.30;;;10.20;73.50;;;;;;5079304;28;20047;-78
2021/10/17 11:15:25;;;;;;;15.13;8.48;;;10.20;72.50;;;;;;5082193;28;20501;-77
2021/10/17 11:17:55;;;;;;;13.40;8.57;;;10.20;70.40;;;;;;5070900;28;20470;-75
2021/10/17 11:20:25;;;;;;;14.55;8.10;;;10.20;68.60;;;;;;5071330;28;20055;-75
2021/10/17 11:22:52;;;;;;;11.45;7.13;;;10.20;69.20;;;;;;5078051;28;20040;-75
2021/10/17 11:25:19;;;;;;;14.85;8.20;;;10.10;67.60;;;;;;5088361;28;20028;-76
2021/10/17 11:27:46;;;;;;;13.93;8.30;;;10.10;67.50;;;;;;5080039;28;20023;-76
2021/10/17 11:30:39;;;;;;;10.65;7.60;;;10.10;69.60;;;;;;5072833;28;20421;-76
2021/10/17 11:33:20;;;;;;;13.68;7.18;;;10.10;69.10;;;;;;5074188;28;20124;-76
2021/10/17 11:35:47;;;;;;;14.93;8.40;;;10.20;68.00;;;;;;5074881;28;20033;-76
2021/10/17 11:38:16;;;;;;;11.10;6.43;;;10.20;67.60;;;;;;5073776;28;20037;-76
2021/10/17 11:40:42;;;;;;;12.52;7.82;;;10.10;65.70;;;;;;5072813;28;20393;-76
2021/10/17 11:43:09;;;;;;;9.90;7.03;;;10.10;67.20;;;;;;5068279;28;20493;-76
2021/10/17 11:45:37;;;;;;;11.73;7.53;;;10.00;65.10;;;;;;5076732;28;20020;-76
2021/10/17 11:48:06;;;;;;;12.30;7.22;;;10.00;65.90;;;;;;5070117;28;20055;-75
2021/10/17 11:50:38;;;;;;;10.90;7.00;;;10.00;65.70;;;;;;5071276;28;20032;-75
2021/10/17 11:53:13;;;;;;;12.73;7.38;;;10.00;64.30;;;;;;5078712;28;20035;-75
2021/10/17 11:55:44;;;;;;;12.43;7.55;;;10.10;65.80;;;;;;5075523;28;20025;-76
2021/10/17 11:58:26;;;;;;;9.00;6.85;;;10.00;66.10;;;;;;5074407;28;20040;-76
2021/10/17 12:01:15;;;;;;;14.18;7.00;;;10.10;66.50;;;;;;5068395;28;20413;-77
2021/10/17 12:03:57;;;;;;;13.77;8.15;;;10.00;63.80;;;;;;5070648;28;20035;-75
2021/10/17 12:06:23;;;;;;;12.85;8.05;;;9.90;64.20;;;;;;5082106;28;20016;-76
2021/10/17 12:09:00;;;;;;;17.55;10.18;;;9.90;62.80;;;;;;5080454;28;20029;-76
2021/10/17 12:11:26;;;;;;;16.17;9.50;;;9.90;65.70;;;;;;5080536;28;20786;-76
2021/10/17 12:13:57;;;;;;;15.50;7.63;;;9.90;68.40;;;;;;5081317;28;20120;-76
2021/10/17 12:16:30;;;;;;;13.02;7.13;;;10.00;67.20;;;;;;5078817;28;20039;-76
2021/10/17 12:19:02;;;;;;;10.77;7.05;;;10.00;68.00;;;;;;5080067;28;20458;-76
2021/10/17 12:21:50;;;;;;;15.38;7.07;;;9.90;65.80;;;;;;5076549;28;20049;-76
2021/10/17 12:24:19;;;;;;;11.30;6.15;;;9.80;63.90;;;;;;5075791;28;20078;-76
2021/10/17 12:26:53;;;;;;;9.40;7.03;;;9.80;63.70;;;;;;5079546;28;20024;-76
2021/10/17 12:29:22;;;;;;;21.92;14.27;;;9.70;64.20;;;;;;5072998;28;20474;-76
2021/10/17 12:31:57;;;;;;;12.70;7.00;;;9.70;64.70;;;;;;5073386;28;20035;-75
2021/10/17 12:34:42;;;;;;;10.48;6.43;;;9.70;64.80;;;;;;5071984;28;20041;-75
2021/10/17 12:37:09;;;;;;;15.05;9.18;;;9.60;64.20;;;;;;5072222;28;20020;-76
2021/10/17 12:39:36;;;;;;;10.20;6.90;;;9.60;64.30;;;;;;5075451;28;20043;-76